Terminal Aerodrome Forecast
Issued by NWS Atlanta, GA

Home | Current Version | Previous Version | Text Only | Print | Product List | Glossary On
Versions: 1 2 3 4 5 6 7 8 9 10 11 12 13 14 15 16 17 18 19 20 21 22 23
000
FTUS42 KFFC 011120
TAFCSG
TAF
KCSG 011120Z 0112/0212 24005KT P6SM BKN007 OVC025
     FM011400 26006KT P6SM SCT025
     FM011600 28009KT P6SM SCT050
      TEMPO 0120/0124 VRB15G25KT 4SM TSRA BKN035CB
     FM020000 28006KT P6SM BKN100
     FM020800 26005KT P6SM SCT015 BKN050=

USA.gov is the U.S. government's official web portal to all federal, state and local government web resources and services.